sensor_id;sensor_type;location;lat;lon;timestamp;P1;durP1;ratioP1;P2;durP2;ratioP2
5622;SDS011;2833;50.432;10.706;2023-06-14T00:01:56;7.83;;;6.00;;
5622;SDS011;2833;50.432;10.706;2023-06-14T00:04:22;7.93;;;5.80;;
5622;SDS011;2833;50.432;10.706;2023-06-14T00:06:50;7.60;;;6.10;;
5622;SDS011;2833;50.432;10.706;2023-06-14T00:09:15;7.30;;;5.83;;
5622;SDS011;2833;50.432;10.706;2023-06-14T00:11:42;8.87;;;5.97;;
5622;SDS011;2833;50.432;10.706;2023-06-14T00:14:07;8.03;;;5.80;;
5622;SDS011;2833;50.432;10.706;2023-06-14T00:16:33;8.67;;;6.10;;
5622;SDS011;2833;50.432;10.706;2023-06-14T00:19:00;13.73;;;6.40;;
5622;SDS011;2833;50.432;10.706;2023-06-14T00:21:25;8.23;;;5.70;;
5622;SDS011;2833;50.432;10.706;2023-06-14T00:23:54;11.67;;;6.10;;
5622;SDS011;2833;50.432;10.706;2023-06-14T00:26:20;11.60;;;6.03;;
5622;SDS011;2833;50.432;10.706;2023-06-14T00:28:45;6.83;;;6.00;;
5622;SDS011;2833;50.432;10.706;2023-06-14T00:31:10;6.80;;;5.23;;
5622;SDS011;2833;50.432;10.706;2023-06-14T00:33:35;13.57;;;6.97;;
5622;SDS011;2833;50.432;10.706;2023-06-14T00:36:01;7.27;;;6.27;;
5622;SDS011;2833;50.432;10.706;2023-06-14T00:38:26;7.07;;;5.80;;
5622;SDS011;2833;50.432;10.706;2023-06-14T00:40:51;7.40;;;5.93;;
5622;SDS011;2833;50.432;10.706;2023-06-14T00:43:16;5.90;;;5.30;;
5622;SDS011;2833;50.432;10.706;2023-06-14T00:45:41;9.67;;;5.93;;
5622;SDS011;2833;50.432;10.706;2023-06-14T00:48:06;6.97;;;6.00;;
5622;SDS011;2833;50.432;10.706;2023-06-14T00:50:32;6.20;;;5.20;;
5622;SDS011;2833;50.432;10.706;2023-06-14T00:52:59;7.07;;;5.10;;
5622;SDS011;2833;50.432;10.706;2023-06-14T00:55:24;7.20;;;5.83;;
5622;SDS011;2833;50.432;10.706;2023-06-14T00:57:50;8.23;;;5.63;;
5622;SDS011;2833;50.432;10.706;2023-06-14T01:00:16;7.70;;;5.43;;
5622;SDS011;2833;50.432;10.706;2023-06-14T01:02:41;8.17;;;6.17;;
5622;SDS011;2833;50.432;10.706;2023-06-14T01:05:07;6.23;;;5.53;;
5622;SDS011;2833;50.432;10.706;2023-06-14T01:10:09;6.40;;;5.50;;
5622;SDS011;2833;50.432;10.706;2023-06-14T01:12:46;5.60;;;5.00;;
5622;SDS011;2833;50.432;10.706;2023-06-14T01:15:12;9.50;;;5.60;;
5622;SDS011;2833;50.432;10.706;2023-06-14T01:17:38;9.50;;;6.07;;
5622;SDS011;2833;50.432;10.706;2023-06-14T01:20:06;6.03;;;5.43;;
5622;SDS011;2833;50.432;10.706;2023-06-14T01:22:35;13.13;;;5.73;;
5622;SDS011;2833;50.432;10.706;2023-06-14T01:25:00;8.97;;;5.70;;
5622;SDS011;2833;50.432;10.706;2023-06-14T01:27:26;7.90;;;5.90;;
5622;SDS011;2833;50.432;10.706;2023-06-14T01:29:54;6.33;;;5.37;;
5622;SDS011;2833;50.432;10.706;2023-06-14T01:32:21;8.23;;;6.00;;
5622;SDS011;2833;50.432;10.706;2023-06-14T01:34:46;7.30;;;6.10;;
5622;SDS011;2833;50.432;10.706;2023-06-14T01:37:11;7.37;;;6.10;;
5622;SDS011;2833;50.432;10.706;2023-06-14T01:39:38;7.07;;;5.80;;
5622;SDS011;2833;50.432;10.706;2023-06-14T01:42:03;8.00;;;6.67;;
5622;SDS011;2833;50.432;10.706;2023-06-14T01:44:29;6.93;;;6.23;;
5622;SDS011;2833;50.432;10.706;2023-06-14T01:46:55;8.13;;;6.00;;
5622;SDS011;2833;50.432;10.706;2023-06-14T01:49:20;7.43;;;6.03;;
5622;SDS011;2833;50.432;10.706;2023-06-14T01:51:45;6.00;;;5.40;;
5622;SDS011;2833;50.432;10.706;2023-06-14T01:54:11;7.53;;;6.40;;
5622;SDS011;2833;50.432;10.706;2023-06-14T01:56:36;7.87;;;6.00;;
5622;SDS011;2833;50.432;10.706;2023-06-14T01:59:01;9.80;;;6.27;;
5622;SDS011;2833;50.432;10.706;2023-06-14T02:01:26;8.53;;;6.10;;
5622;SDS011;2833;50.432;10.706;2023-06-14T02:03:51;6.60;;;5.90;;
5622;SDS011;2833;50.432;10.706;2023-06-14T02:06:18;10.67;;;5.63;;
5622;SDS011;2833;50.432;10.706;2023-06-14T02:08:43;8.50;;;5.70;;
5622;SDS011;2833;50.432;10.706;2023-06-14T02:11:09;6.03;;;5.43;;
5622;SDS011;2833;50.432;10.706;2023-06-14T02:13:35;9.57;;;5.90;;
5622;SDS011;2833;50.432;10.706;2023-06-14T02:16:00;10.50;;;5.63;;
5622;SDS011;2833;50.432;10.706;2023-06-14T02:18:25;8.47;;;6.03;;
5622;SDS011;2833;50.432;10.706;2023-06-14T02:20:51;6.83;;;6.13;;
5622;SDS011;2833;50.432;10.706;2023-06-14T02:23:16;8.27;;;5.67;;
5622;SDS011;2833;50.432;10.706;2023-06-14T02:25:41;7.97;;;5.87;;
5622;SDS011;2833;50.432;10.706;2023-06-14T02:28:08;10.73;;;5.67;;
5622;SDS011;2833;50.432;10.706;2023-06-14T02:30:33;9.70;;;5.63;;
5622;SDS011;2833;50.432;10.706;2023-06-14T02:32:58;5.80;;;5.20;;
5622;SDS011;2833;50.432;10.706;2023-06-14T02:35:24;7.90;;;5.47;;
5622;SDS011;2833;50.432;10.706;2023-06-14T02:37:52;5.77;;;5.23;;
5622;SDS011;2833;50.432;10.706;2023-06-14T02:40:18;11.13;;;6.20;;
5622;SDS011;2833;50.432;10.706;2023-06-14T02:42:43;7.90;;;6.47;;
5622;SDS011;2833;50.432;10.706;2023-06-14T02:45:08;6.20;;;5.60;;
5622;SDS011;2833;50.432;10.706;2023-06-14T02:47:34;13.60;;;6.03;;
5622;SDS011;2833;50.432;10.706;2023-06-14T02:49:59;10.40;;;5.60;;
5622;SDS011;2833;50.432;10.706;2023-06-14T02:52:24;5.93;;;5.33;;
5622;SDS011;2833;50.432;10.706;2023-06-14T02:54:50;11.30;;;5.80;;
5622;SDS011;2833;50.432;10.706;2023-06-14T02:57:15;8.73;;;5.67;;
5622;SDS011;2833;50.432;10.706;2023-06-14T02:59:41;7.43;;;5.47;;
5622;SDS011;2833;50.432;10.706;2023-06-14T03:02:06;7.50;;;5.90;;
5622;SDS011;2833;50.432;10.706;2023-06-14T03:04:31;7.27;;;5.50;;
5622;SDS011;2833;50.432;10.706;2023-06-14T03:07:02;7.67;;;5.47;;
5622;SDS011;2833;50.432;10.706;2023-06-14T03:09:27;5.60;;;5.10;;
5622;SDS011;2833;50.432;10.706;2023-06-14T03:11:53;6.50;;;5.27;;
5622;SDS011;2833;50.432;10.706;2023-06-14T03:14:18;7.27;;;5.50;;
5622;SDS011;2833;50.432;10.706;2023-06-14T03:16:44;6.70;;;5.33;;
5622;SDS011;2833;50.432;10.706;2023-06-14T03:19:10;9.30;;;4.90;;
5622;SDS011;2833;50.432;10.706;2023-06-14T03:21:35;7.13;;;5.43;;
5622;SDS011;2833;50.432;10.706;2023-06-14T03:24:00;6.27;;;5.27;;
5622;SDS011;2833;50.432;10.706;2023-06-14T03:26:28;5.97;;;4.43;;
5622;SDS011;2833;50.432;10.706;2023-06-14T03:28:55;5.40;;;4.90;;
5622;SDS011;2833;50.432;10.706;2023-06-14T03:31:20;11.40;;;5.00;;
5622;SDS011;2833;50.432;10.706;2023-06-14T03:33:46;6.80;;;5.20;;
5622;SDS011;2833;50.432;10.706;2023-06-14T03:36:11;6.37;;;4.90;;
5622;SDS011;2833;50.432;10.706;2023-06-14T03:38:36;11.23;;;5.53;;
5622;SDS011;2833;50.432;10.706;2023-06-14T03:41:01;7.33;;;5.40;;
5622;SDS011;2833;50.432;10.706;2023-06-14T03:43:27;8.50;;;5.20;;
5622;SDS011;2833;50.432;10.706;2023-06-14T03:45:52;8.20;;;4.80;;
5622;SDS011;2833;50.432;10.706;2023-06-14T03:48:17;6.80;;;4.80;;
5622;SDS011;2833;50.432;10.706;2023-06-14T03:50:43;6.33;;;5.03;;
5622;SDS011;2833;50.432;10.706;2023-06-14T03:53:09;7.73;;;5.47;;
5622;SDS011;2833;50.432;10.706;2023-06-14T03:55:34;7.67;;;5.07;;
5622;SDS011;2833;50.432;10.706;2023-06-14T03:57:59;7.47;;;4.83;;
5622;SDS011;2833;50.432;10.706;2023-06-14T04:00:25;6.13;;;5.30;;
5622;SDS011;2833;50.432;10.706;2023-06-14T04:02:50;10.13;;;5.40;;
5622;SDS011;2833;50.432;10.706;2023-06-14T04:05:16;6.30;;;4.83;;
5622;SDS011;2833;50.432;10.706;2023-06-14T04:07:44;7.23;;;5.33;;
5622;SDS011;2833;50.432;10.706;2023-06-14T04:10:14;6.30;;;4.97;;
5622;SDS011;2833;50.432;10.706;2023-06-14T04:12:40;8.00;;;4.80;;
5622;SDS011;2833;50.432;10.706;2023-06-14T04:15:05;6.07;;;5.20;;
5622;SDS011;2833;50.432;10.706;2023-06-14T04:17:31;8.23;;;5.07;;
5622;SDS011;2833;50.432;10.706;2023-06-14T04:19:58;6.70;;;5.20;;
5622;SDS011;2833;50.432;10.706;2023-06-14T04:22:24;6.20;;;4.70;;
5622;SDS011;2833;50.432;10.706;2023-06-14T04:24:53;4.97;;;4.13;;
5622;SDS011;2833;50.432;10.706;2023-06-14T04:27:20;6.13;;;4.70;;
5622;SDS011;2833;50.432;10.706;2023-06-14T04:29:46;5.00;;;4.50;;
5622;SDS011;2833;50.432;10.706;2023-06-14T04:32:18;6.80;;;4.27;;
5622;SDS011;2833;50.432;10.706;2023-06-14T04:34:43;7.80;;;4.93;;
5622;SDS011;2833;50.432;10.706;2023-06-14T04:37:09;8.67;;;5.10;;
5622;SDS011;2833;50.432;10.706;2023-06-14T04:39:34;6.30;;;4.73;;
5622;SDS011;2833;50.432;10.706;2023-06-14T04:42:00;5.93;;;5.33;;
5622;SDS011;2833;50.432;10.706;2023-06-14T04:44:25;5.33;;;4.33;;
5622;SDS011;2833;50.432;10.706;2023-06-14T04:46:55;6.13;;;5.53;;
5622;SDS011;2833;50.432;10.706;2023-06-14T04:49:21;4.80;;;4.10;;
5622;SDS011;2833;50.432;10.706;2023-06-14T04:51:48;5.37;;;4.50;;
5622;SDS011;2833;50.432;10.706;2023-06-14T04:54:15;4.97;;;4.50;;
5622;SDS011;2833;50.432;10.706;2023-06-14T04:56:41;5.50;;;4.33;;
5622;SDS011;2833;50.432;10.706;2023-06-14T04:59:07;5.07;;;4.50;;
5622;SDS011;2833;50.432;10.706;2023-06-14T05:01:32;6.10;;;5.10;;
5622;SDS011;2833;50.432;10.706;2023-06-14T05:03:58;16.83;;;5.73;;
5622;SDS011;2833;50.432;10.706;2023-06-14T05:06:23;5.93;;;5.00;;
5622;SDS011;2833;50.432;10.706;2023-06-14T05:08:49;6.00;;;5.00;;
5622;SDS011;2833;50.432;10.706;2023-06-14T05:11:14;6.47;;;5.03;;
5622;SDS011;2833;50.432;10.706;2023-06-14T05:13:39;9.33;;;6.20;;
5622;SDS011;2833;50.432;10.706;2023-06-14T05:16:06;7.30;;;5.50;;
5622;SDS011;2833;50.432;10.706;2023-06-14T05:18:31;12.90;;;7.70;;
5622;SDS011;2833;50.432;10.706;2023-06-14T05:20:59;6.83;;;4.90;;
5622;SDS011;2833;50.432;10.706;2023-06-14T05:23:24;7.83;;;5.37;;
5622;SDS011;2833;50.432;10.706;2023-06-14T05:25:49;5.70;;;4.60;;
5622;SDS011;2833;50.432;10.706;2023-06-14T05:28:15;8.63;;;5.20;;
5622;SDS011;2833;50.432;10.706;2023-06-14T05:30:41;5.27;;;4.77;;
5622;SDS011;2833;50.432;10.706;2023-06-14T05:33:06;7.03;;;4.40;;
5622;SDS011;2833;50.432;10.706;2023-06-14T05:35:31;9.03;;;4.67;;
5622;SDS011;2833;50.432;10.706;2023-06-14T05:37:56;8.70;;;4.40;;
5622;SDS011;2833;50.432;10.706;2023-06-14T05:40:22;5.60;;;5.00;;
5622;SDS011;2833;50.432;10.706;2023-06-14T05:42:47;5.80;;;4.70;;
5622;SDS011;2833;50.432;10.706;2023-06-14T05:45:12;6.13;;;4.73;;
5622;SDS011;2833;50.432;10.706;2023-06-14T05:47:37;5.73;;;4.73;;
5622;SDS011;2833;50.432;10.706;2023-06-14T05:50:03;4.90;;;4.40;;
5622;SDS011;2833;50.432;10.706;2023-06-14T05:52:28;8.50;;;5.43;;
5622;SDS011;2833;50.432;10.706;2023-06-14T05:54:54;5.60;;;4.63;;
5622;SDS011;2833;50.432;10.706;2023-06-14T05:57:19;4.90;;;4.47;;
5622;SDS011;2833;50.432;10.706;2023-06-14T05:59:45;8.60;;;4.77;;
5622;SDS011;2833;50.432;10.706;2023-06-14T06:02:10;5.57;;;4.93;;
5622;SDS011;2833;50.432;10.706;2023-06-14T06:04:35;6.33;;;4.20;;
5622;SDS011;2833;50.432;10.706;2023-06-14T06:07:00;5.83;;;4.23;;
5622;SDS011;2833;50.432;10.706;2023-06-14T06:09:26;4.67;;;3.80;;
5622;SDS011;2833;50.432;10.706;2023-06-14T06:11:51;5.87;;;4.00;;
5622;SDS011;2833;50.432;10.706;2023-06-14T06:14:16;5.10;;;4.53;;
5622;SDS011;2833;50.432;10.706;2023-06-14T06:16:41;4.27;;;3.87;;
5622;SDS011;2833;50.432;10.706;2023-06-14T06:19:07;5.87;;;4.40;;
5622;SDS011;2833;50.432;10.706;2023-06-14T06:21:32;4.57;;;3.87;;
5622;SDS011;2833;50.432;10.706;2023-06-14T06:23:58;5.53;;;4.60;;
5622;SDS011;2833;50.432;10.706;2023-06-14T06:26:23;5.00;;;4.50;;
5622;SDS011;2833;50.432;10.706;2023-06-14T06:28:48;4.80;;;4.13;;
5622;SDS011;2833;50.432;10.706;2023-06-14T06:31:13;8.00;;;4.00;;
5622;SDS011;2833;50.432;10.706;2023-06-14T06:33:39;4.30;;;3.90;;
5622;SDS011;2833;50.432;10.706;2023-06-14T06:36:04;6.07;;;3.70;;
5622;SDS011;2833;50.432;10.706;2023-06-14T06:38:30;6.50;;;4.10;;
5622;SDS011;2833;50.432;10.706;2023-06-14T06:40:55;4.90;;;3.90;;
5622;SDS011;2833;50.432;10.706;2023-06-14T06:43:21;5.27;;;4.17;;
5622;SDS011;2833;50.432;10.706;2023-06-14T06:45:46;4.90;;;4.10;;
5622;SDS011;2833;50.432;10.706;2023-06-14T06:48:11;4.20;;;3.80;;
5622;SDS011;2833;50.432;10.706;2023-06-14T06:50:37;5.63;;;3.87;;
5622;SDS011;2833;50.432;10.706;2023-06-14T06:53:02;7.43;;;4.43;;
5622;SDS011;2833;50.432;10.706;2023-06-14T06:55:27;7.20;;;4.43;;
5622;SDS011;2833;50.432;10.706;2023-06-14T06:57:53;4.70;;;4.20;;
5622;SDS011;2833;50.432;10.706;2023-06-14T07:00:19;4.57;;;3.90;;
5622;SDS011;2833;50.432;10.706;2023-06-14T07:02:44;5.80;;;4.30;;
5622;SDS011;2833;50.432;10.706;2023-06-14T07:05:09;4.43;;;3.67;;
5622;SDS011;2833;50.432;10.706;2023-06-14T07:07:35;5.73;;;3.40;;
5622;SDS011;2833;50.432;10.706;2023-06-14T07:10:00;4.10;;;3.70;;
5622;SDS011;2833;50.432;10.706;2023-06-14T07:12:28;5.93;;;4.60;;
5622;SDS011;2833;50.432;10.706;2023-06-14T07:14:54;5.03;;;4.00;;
5622;SDS011;2833;50.432;10.706;2023-06-14T07:17:19;5.87;;;4.00;;
5622;SDS011;2833;50.432;10.706;2023-06-14T07:19:44;4.20;;;3.90;;
5622;SDS011;2833;50.432;10.706;2023-06-14T07:22:10;4.53;;;4.10;;
5622;SDS011;2833;50.432;10.706;2023-06-14T07:24:35;4.97;;;4.40;;
5622;SDS011;2833;50.432;10.706;2023-06-14T07:27:01;4.90;;;3.77;;
5622;SDS011;2833;50.432;10.706;2023-06-14T07:29:27;6.47;;;4.30;;
5622;SDS011;2833;50.432;10.706;2023-06-14T07:31:52;5.63;;;3.93;;
5622;SDS011;2833;50.432;10.706;2023-06-14T07:34:17;6.30;;;3.63;;
5622;SDS011;2833;50.432;10.706;2023-06-14T07:36:42;3.50;;;3.20;;
5622;SDS011;2833;50.432;10.706;2023-06-14T07:39:09;4.33;;;3.67;;
5622;SDS011;2833;50.432;10.706;2023-06-14T07:41:35;6.00;;;3.77;;
5622;SDS011;2833;50.432;10.706;2023-06-14T07:44:00;7.20;;;3.73;;
5622;SDS011;2833;50.432;10.706;2023-06-14T07:46:25;4.30;;;3.90;;
5622;SDS011;2833;50.432;10.706;2023-06-14T07:48:50;3.50;;;3.20;;
5622;SDS011;2833;50.432;10.706;2023-06-14T07:51:16;3.43;;;3.13;;
5622;SDS011;2833;50.432;10.706;2023-06-14T07:53:41;5.10;;;3.47;;
5622;SDS011;2833;50.432;10.706;2023-06-14T07:56:07;5.93;;;3.57;;
5622;SDS011;2833;50.432;10.706;2023-06-14T07:58:32;4.40;;;3.87;;
5622;SDS011;2833;50.432;10.706;2023-06-14T08:00:57;3.30;;;3.00;;
5622;SDS011;2833;50.432;10.706;2023-06-14T08:03:22;6.67;;;3.47;;
5622;SDS011;2833;50.432;10.706;2023-06-14T08:05:48;7.93;;;3.97;;
5622;SDS011;2833;50.432;10.706;2023-06-14T08:08:14;4.63;;;3.37;;
5622;SDS011;2833;50.432;10.706;2023-06-14T08:10:39;4.97;;;3.43;;
5622;SDS011;2833;50.432;10.706;2023-06-14T08:13:04;4.03;;;3.63;;
5622;SDS011;2833;50.432;10.706;2023-06-14T08:15:29;5.03;;;3.80;;
5622;SDS011;2833;50.432;10.706;2023-06-14T08:17:55;4.00;;;3.50;;
5622;SDS011;2833;50.432;10.706;2023-06-14T08:20:20;8.73;;;3.73;;
5622;SDS011;2833;50.432;10.706;2023-06-14T08:22:45;8.73;;;3.90;;
5622;SDS011;2833;50.432;10.706;2023-06-14T08:25:13;6.80;;;3.37;;
5622;SDS011;2833;50.432;10.706;2023-06-14T08:27:38;3.20;;;2.90;;
5622;SDS011;2833;50.432;10.706;2023-06-14T08:30:03;3.13;;;2.90;;
5622;SDS011;2833;50.432;10.706;2023-06-14T08:32:29;4.93;;;3.20;;
5622;SDS011;2833;50.432;10.706;2023-06-14T08:34:54;5.30;;;3.40;;
5622;SDS011;2833;50.432;10.706;2023-06-14T08:37:19;6.33;;;3.60;;
5622;SDS011;2833;50.432;10.706;2023-06-14T08:39:45;4.80;;;3.63;;
5622;SDS011;2833;50.432;10.706;2023-06-14T08:42:10;4.27;;;3.30;;
5622;SDS011;2833;50.432;10.706;2023-06-14T08:44:35;3.30;;;3.00;;
5622;SDS011;2833;50.432;10.706;2023-06-14T08:47:01;4.17;;;3.60;;
5622;SDS011;2833;50.432;10.706;2023-06-14T08:49:28;3.90;;;3.20;;
5622;SDS011;2833;50.432;10.706;2023-06-14T08:51:58;3.83;;;3.47;;
5622;SDS011;2833;50.432;10.706;2023-06-14T08:54:27;5.27;;;3.77;;
5622;SDS011;2833;50.432;10.706;2023-06-14T08:56:55;8.10;;;4.20;;
5622;SDS011;2833;50.432;10.706;2023-06-14T08:59:23;3.80;;;3.43;;
5622;SDS011;2833;50.432;10.706;2023-06-14T09:01:49;3.97;;;3.60;;
5622;SDS011;2833;50.432;10.706;2023-06-14T09:04:17;4.57;;;3.63;;
5622;SDS011;2833;50.432;10.706;2023-06-14T09:06:42;4.13;;;3.80;;
5622;SDS011;2833;50.432;10.706;2023-06-14T09:09:08;7.53;;;3.17;;
5622;SDS011;2833;50.432;10.706;2023-06-14T09:11:34;6.77;;;3.60;;
5622;SDS011;2833;50.432;10.706;2023-06-14T09:14:00;3.67;;;3.37;;
5622;SDS011;2833;50.432;10.706;2023-06-14T09:16:25;4.83;;;3.97;;
5622;SDS011;2833;50.432;10.706;2023-06-14T09:18:51;9.83;;;2.90;;
5622;SDS011;2833;50.432;10.706;2023-06-14T09:21:16;4.17;;;3.77;;
5622;SDS011;2833;50.432;10.706;2023-06-14T09:23:46;5.10;;;4.00;;
5622;SDS011;2833;50.432;10.706;2023-06-14T09:26:12;4.83;;;3.93;;
5622;SDS011;2833;50.432;10.706;2023-06-14T09:28:44;7.83;;;3.80;;
5622;SDS011;2833;50.432;10.706;2023-06-14T09:31:19;5.17;;;3.80;;
5622;SDS011;2833;50.432;10.706;2023-06-14T09:33:45;4.90;;;3.93;;
5622;SDS011;2833;50.432;10.706;2023-06-14T09:36:15;5.30;;;4.57;;
5622;SDS011;2833;50.432;10.706;2023-06-14T09:38:41;4.80;;;3.70;;
5622;SDS011;2833;50.432;10.706;2023-06-14T09:41:06;5.50;;;3.97;;
5622;SDS011;2833;50.432;10.706;2023-06-14T09:43:32;7.33;;;3.70;;
5622;SDS011;2833;50.432;10.706;2023-06-14T09:45:58;4.70;;;4.03;;
5622;SDS011;2833;50.432;10.706;2023-06-14T09:48:25;5.20;;;4.30;;
5622;SDS011;2833;50.432;10.706;2023-06-14T09:50:50;5.30;;;4.40;;
5622;SDS011;2833;50.432;10.706;2023-06-14T09:53:15;5.83;;;4.80;;
5622;SDS011;2833;50.432;10.706;2023-06-14T09:55:41;4.50;;;3.63;;
5622;SDS011;2833;50.432;10.706;2023-06-14T09:58:08;7.00;;;3.93;;
5622;SDS011;2833;50.432;10.706;2023-06-14T10:00:34;4.13;;;3.80;;
5622;SDS011;2833;50.432;10.706;2023-06-14T10:03:03;6.20;;;4.40;;
5622;SDS011;2833;50.432;10.706;2023-06-14T10:05:30;8.60;;;3.90;;
5622;SDS011;2833;50.432;10.706;2023-06-14T10:07:58;3.73;;;3.30;;
5622;SDS011;2833;50.432;10.706;2023-06-14T10:10:24;7.60;;;5.07;;
5622;SDS011;2833;50.432;10.706;2023-06-14T10:12:50;4.63;;;3.77;;
5622;SDS011;2833;50.432;10.706;2023-06-14T10:15:20;6.03;;;4.13;;
5622;SDS011;2833;50.432;10.706;2023-06-14T10:17:49;3.67;;;3.37;;
5622;SDS011;2833;50.432;10.706;2023-06-14T10:22:42;4.10;;;3.73;;
5622;SDS011;2833;50.432;10.706;2023-06-14T10:25:12;5.53;;;3.73;;
5622;SDS011;2833;50.432;10.706;2023-06-14T10:27:38;2.60;;;2.40;;
5622;SDS011;2833;50.432;10.706;2023-06-14T10:30:03;9.87;;;5.27;;
5622;SDS011;2833;50.432;10.706;2023-06-14T10:32:29;5.33;;;4.83;;
5622;SDS011;2833;50.432;10.706;2023-06-14T10:37:19;8.90;;;4.30;;
5622;SDS011;2833;50.432;10.706;2023-06-14T10:39:45;4.63;;;4.10;;
5622;SDS011;2833;50.432;10.706;2023-06-14T10:42:13;5.47;;;4.83;;
5622;SDS011;2833;50.432;10.706;2023-06-14T10:44:39;5.80;;;4.57;;
5622;SDS011;2833;50.432;10.706;2023-06-14T10:50:05;5.43;;;4.77;;
5622;SDS011;2833;50.432;10.706;2023-06-14T10:52:32;5.23;;;4.33;;
5622;SDS011;2833;50.432;10.706;2023-06-14T10:55:01;4.40;;;3.87;;
5622;SDS011;2833;50.432;10.706;2023-06-14T10:57:26;5.03;;;4.30;;
5622;SDS011;2833;50.432;10.706;2023-06-14T10:59:52;4.67;;;3.17;;
5622;SDS011;2833;50.432;10.706;2023-06-14T11:05:03;4.70;;;4.20;;
5622;SDS011;2833;50.432;10.706;2023-06-14T11:12:47;4.47;;;4.03;;
5622;SDS011;2833;50.432;10.706;2023-06-14T11:15:12;4.70;;;3.47;;
5622;SDS011;2833;50.432;10.706;2023-06-14T11:17:37;4.70;;;4.00;;
5622;SDS011;2833;50.432;10.706;2023-06-14T11:20:12;3.80;;;3.50;;
5622;SDS011;2833;50.432;10.706;2023-06-14T11:22:44;4.83;;;4.10;;
5622;SDS011;2833;50.432;10.706;2023-06-14T11:25:10;4.60;;;4.20;;
5622;SDS011;2833;50.432;10.706;2023-06-14T11:27:35;4.20;;;3.80;;
5622;SDS011;2833;50.432;10.706;2023-06-14T11:30:00;3.43;;;3.13;;
5622;SDS011;2833;50.432;10.706;2023-06-14T11:32:25;3.33;;;3.03;;
5622;SDS011;2833;50.432;10.706;2023-06-14T11:34:50;3.67;;;3.33;;
5622;SDS011;2833;50.432;10.706;2023-06-14T11:37:16;4.30;;;3.30;;
5622;SDS011;2833;50.432;10.706;2023-06-14T11:39:45;5.27;;;3.80;;
5622;SDS011;2833;50.432;10.706;2023-06-14T11:42:20;3.87;;;3.07;;
5622;SDS011;2833;50.432;10.706;2023-06-14T11:44:45;4.50;;;3.93;;
5622;SDS011;2833;50.432;10.706;2023-06-14T11:47:11;4.20;;;3.70;;
5622;SDS011;2833;50.432;10.706;2023-06-14T11:49:36;4.70;;;3.87;;
5622;SDS011;2833;50.432;10.706;2023-06-14T11:52:01;4.67;;;3.80;;
5622;SDS011;2833;50.432;10.706;2023-06-14T11:54:27;3.67;;;3.33;;
5622;SDS011;2833;50.432;10.706;2023-06-14T11:56:52;4.57;;;3.40;;
5622;SDS011;2833;50.432;10.706;2023-06-14T11:59:17;4.23;;;3.17;;
5622;SDS011;2833;50.432;10.706;2023-06-14T12:01:43;5.87;;;4.53;;
5622;SDS011;2833;50.432;10.706;2023-06-14T12:04:08;4.30;;;3.53;;
5622;SDS011;2833;50.432;10.706;2023-06-14T12:06:33;4.77;;;3.80;;
5622;SDS011;2833;50.432;10.706;2023-06-14T12:09:03;4.67;;;4.20;;
5622;SDS011;2833;50.432;10.706;2023-06-14T12:11:33;3.63;;;3.33;;
5622;SDS011;2833;50.432;10.706;2023-06-14T12:13:59;5.57;;;4.30;;
5622;SDS011;2833;50.432;10.706;2023-06-14T12:16:29;3.97;;;3.63;;
5622;SDS011;2833;50.432;10.706;2023-06-14T12:18:55;4.60;;;4.20;;
5622;SDS011;2833;50.432;10.706;2023-06-14T12:21:22;7.33;;;4.37;;
5622;SDS011;2833;50.432;10.706;2023-06-14T12:23:48;6.63;;;4.27;;
5622;SDS011;2833;50.432;10.706;2023-06-14T12:26:17;5.80;;;3.47;;
5622;SDS011;2833;50.432;10.706;2023-06-14T12:28:46;3.97;;;3.23;;
5622;SDS011;2833;50.432;10.706;2023-06-14T12:31:12;4.83;;;3.27;;
5622;SDS011;2833;50.432;10.706;2023-06-14T12:33:38;6.17;;;3.60;;
5622;SDS011;2833;50.432;10.706;2023-06-14T12:36:03;3.63;;;3.33;;
5622;SDS011;2833;50.432;10.706;2023-06-14T12:38:29;3.57;;;3.00;;
5622;SDS011;2833;50.432;10.706;2023-06-14T12:40:55;5.80;;;3.97;;
5622;SDS011;2833;50.432;10.706;2023-06-14T12:43:20;8.33;;;3.90;;
5622;SDS011;2833;50.432;10.706;2023-06-14T12:45:45;9.83;;;4.17;;
5622;SDS011;2833;50.432;10.706;2023-06-14T12:48:11;4.70;;;4.10;;
5622;SDS011;2833;50.432;10.706;2023-06-14T12:50:36;5.57;;;3.90;;
5622;SDS011;2833;50.432;10.706;2023-06-14T12:53:01;6.17;;;3.50;;
5622;SDS011;2833;50.432;10.706;2023-06-14T12:55:26;3.73;;;3.43;;
5622;SDS011;2833;50.432;10.706;2023-06-14T12:57:51;4.80;;;3.80;;
5622;SDS011;2833;50.432;10.706;2023-06-14T13:00:17;4.10;;;3.70;;
5622;SDS011;2833;50.432;10.706;2023-06-14T13:02:43;4.77;;;4.23;;
5622;SDS011;2833;50.432;10.706;2023-06-14T13:05:08;5.33;;;4.50;;
5622;SDS011;2833;50.432;10.706;2023-06-14T13:07:33;11.50;;;4.57;;
5622;SDS011;2833;50.432;10.706;2023-06-14T13:09:58;4.53;;;4.00;;
5622;SDS011;2833;50.432;10.706;2023-06-14T13:12:24;4.23;;;3.83;;
5622;SDS011;2833;50.432;10.706;2023-06-14T13:14:49;7.23;;;3.60;;
5622;SDS011;2833;50.432;10.706;2023-06-14T13:17:14;3.97;;;3.67;;
5622;SDS011;2833;50.432;10.706;2023-06-14T13:19:40;5.50;;;3.63;;
5622;SDS011;2833;50.432;10.706;2023-06-14T13:22:07;4.37;;;3.97;;
5622;SDS011;2833;50.432;10.706;2023-06-14T13:24:33;4.37;;;3.50;;
5622;SDS011;2833;50.432;10.706;2023-06-14T13:26:58;4.10;;;3.73;;
5622;SDS011;2833;50.432;10.706;2023-06-14T13:29:24;5.00;;;3.97;;
5622;SDS011;2833;50.432;10.706;2023-06-14T13:31:49;5.07;;;4.20;;
5622;SDS011;2833;50.432;10.706;2023-06-14T13:34:14;9.33;;;3.30;;
5622;SDS011;2833;50.432;10.706;2023-06-14T13:36:40;7.20;;;2.27;;
5622;SDS011;2833;50.432;10.706;2023-06-14T13:39:05;3.90;;;3.53;;
5622;SDS011;2833;50.432;10.706;2023-06-14T13:41:31;6.27;;;4.40;;
5622;SDS011;2833;50.432;10.706;2023-06-14T13:43:58;4.63;;;4.13;;
5622;SDS011;2833;50.432;10.706;2023-06-14T13:46:24;4.50;;;4.10;;
5622;SDS011;2833;50.432;10.706;2023-06-14T13:48:49;6.20;;;4.00;;
5622;SDS011;2833;50.432;10.706;2023-06-14T13:51:14;3.97;;;3.57;;
5622;SDS011;2833;50.432;10.706;2023-06-14T13:53:39;3.80;;;3.50;;
5622;SDS011;2833;50.432;10.706;2023-06-14T13:56:04;4.03;;;3.40;;
5622;SDS011;2833;50.432;10.706;2023-06-14T13:58:30;3.43;;;3.13;;
5622;SDS011;2833;50.432;10.706;2023-06-14T14:00:55;6.27;;;3.57;;
5622;SDS011;2833;50.432;10.706;2023-06-14T14:03:20;4.17;;;3.73;;
5622;SDS011;2833;50.432;10.706;2023-06-14T14:05:46;3.97;;;3.57;;
5622;SDS011;2833;50.432;10.706;2023-06-14T14:08:11;3.77;;;3.40;;
5622;SDS011;2833;50.432;10.706;2023-06-14T14:10:36;6.20;;;3.60;;
5622;SDS011;2833;50.432;10.706;2023-06-14T14:13:01;4.43;;;3.43;;
5622;SDS011;2833;50.432;10.706;2023-06-14T14:15:27;4.20;;;3.43;;
5622;SDS011;2833;50.432;10.706;2023-06-14T14:17:53;3.00;;;2.10;;
5622;SDS011;2833;50.432;10.706;2023-06-14T14:20:19;5.50;;;4.10;;
5622;SDS011;2833;50.432;10.706;2023-06-14T14:22:44;4.10;;;3.20;;
5622;SDS011;2833;50.432;10.706;2023-06-14T14:25:10;4.47;;;3.73;;
5622;SDS011;2833;50.432;10.706;2023-06-14T14:27:35;3.57;;;3.10;;
5622;SDS011;2833;50.432;10.706;2023-06-14T14:30:01;4.83;;;3.97;;
5622;SDS011;2833;50.432;10.706;2023-06-14T14:32:26;4.20;;;3.67;;
5622;SDS011;2833;50.432;10.706;2023-06-14T14:34:51;6.17;;;3.60;;
5622;SDS011;2833;50.432;10.706;2023-06-14T14:37:17;6.53;;;3.97;;
5622;SDS011;2833;50.432;10.706;2023-06-14T14:39:43;31.47;;;3.60;;
5622;SDS011;2833;50.432;10.706;2023-06-14T14:42:08;4.67;;;3.80;;
5622;SDS011;2833;50.432;10.706;2023-06-14T14:44:34;5.90;;;3.73;;
5622;SDS011;2833;50.432;10.706;2023-06-14T14:46:59;4.20;;;3.80;;
5622;SDS011;2833;50.432;10.706;2023-06-14T14:49:24;9.50;;;4.30;;
5622;SDS011;2833;50.432;10.706;2023-06-14T14:51:49;5.93;;;5.30;;
5622;SDS011;2833;50.432;10.706;2023-06-14T14:54:14;5.23;;;3.83;;
5622;SDS011;2833;50.432;10.706;2023-06-14T14:56:40;7.27;;;3.90;;
5622;SDS011;2833;50.432;10.706;2023-06-14T14:59:05;5.90;;;3.93;;
5622;SDS011;2833;50.432;10.706;2023-06-14T15:01:30;10.80;;;4.60;;
5622;SDS011;2833;50.432;10.706;2023-06-14T15:03:55;8.23;;;4.07;;
5622;SDS011;2833;50.432;10.706;2023-06-14T15:06:21;4.20;;;3.53;;
5622;SDS011;2833;50.432;10.706;2023-06-14T15:08:46;4.47;;;3.57;;
5622;SDS011;2833;50.432;10.706;2023-06-14T15:11:11;4.67;;;4.17;;